Hectorville, Vermont
Current Conditions -  °F | °C
As of 11:35 PM on Saturday 22 Nov 2014 (Local Time) from KEFK Reporting Station
Unknown Precip Unknown Precip  
Wind Chill: 27°   Ceiling: 600
Heat Index: 32°   Visibility: 4mi
Dew Point: 31°   Wind: 5mph
Humidity: 96%   Direction: 130°SE
Pressure: 29.91"   Gusts: NA
Location:  44.8557°N, 72.6016°W
Report Text: KEFK 230435Z AUTO 13004KT 4SM UP BKN006 BKN014 OVC021 00/00 A2991 RMK AO2 T00001005
Loading
Personal Weather Stations






























Interactive Weather Map New forecast layout! Learn more

10-Day Weather Forecast

Advertisements
Track Severe Weather on mobile